Time;durP1;ratioP1;P1;durP2;ratioP2;P2;SDS_P1;SDS_P2;PMS_P1;PMS_P2;Temp;Humidity;BMP_temperature;BMP_pressure;BME280_temperature;BME280_humidity;BME280_pressure;Samples;Min_cycle;Max_cycle;Signal;HPM_P1;HPM_P2
2023/03/23 00:00:00;;;;;;;12.40;4.75;;;10.70;99.90;;;;;;5048723;28;20036;-63
2023/03/23 00:02:32;;;;;;;13.02;6.80;;;10.70;99.90;;;;;;5048509;28;20033;-63
2023/03/23 00:05:00;;;;;;;15.70;8.77;;;10.70;99.90;;;;;;5048357;28;20059;-64
2023/03/23 00:07:27;;;;;;;9.13;6.07;;;10.70;99.90;;;;;;5049053;28;20494;-64
2023/03/23 00:09:54;;;;;;;9.43;5.55;;;10.80;99.90;;;;;;5043160;28;20049;-64
2023/03/23 00:12:28;;;;;;;6.93;6.18;;;10.80;99.90;;;;;;5048159;28;20091;-64
2023/03/23 00:14:55;;;;;;;8.70;6.63;;;10.80;99.90;;;;;;5041116;28;20053;-64
2023/03/23 00:17:25;;;;;;;11.00;6.70;;;10.70;99.90;;;;;;5043469;28;20509;-64
2023/03/23 00:19:51;;;;;;;13.45;7.20;;;10.70;99.90;;;;;;5049227;28;20499;-64
2023/03/23 00:22:19;;;;;;;8.88;6.45;;;10.70;99.90;;;;;;5048694;28;20384;-64
2023/03/23 00:24:45;;;;;;;7.57;5.80;;;10.70;99.90;;;;;;5048022;28;20569;-64
2023/03/23 00:27:14;;;;;;;12.45;6.85;;;10.70;99.90;;;;;;5049087;28;20052;-64
2023/03/23 00:29:41;;;;;;;16.08;7.22;;;10.70;99.90;;;;;;5046431;28;20048;-64
2023/03/23 00:32:13;;;;;;;9.05;5.68;;;10.70;99.90;;;;;;5047119;28;20059;-64
2023/03/23 00:34:41;;;;;;;11.63;6.45;;;10.70;99.90;;;;;;5048855;28;20376;-64
2023/03/23 00:37:07;;;;;;;8.32;5.85;;;10.70;99.90;;;;;;5047275;28;20080;-64
2023/03/23 00:39:36;;;;;;;7.38;4.82;;;10.80;99.90;;;;;;5047358;28;20085;-64
2023/03/23 00:42:03;;;;;;;7.88;3.47;;;10.70;99.90;;;;;;5048072;28;20080;-64
2023/03/23 00:44:31;;;;;;;14.02;5.82;;;10.80;99.90;;;;;;5059233;28;20490;-64
2023/03/23 00:46:58;;;;;;;7.72;4.60;;;10.80;99.90;;;;;;5062739;28;20044;-64
2023/03/23 00:49:25;;;;;;;7.00;3.55;;;10.80;99.90;;;;;;5050079;28;20513;-65
2023/03/23 00:51:55;;;;;;;8.82;4.45;;;10.80;99.90;;;;;;5067767;28;20036;-65
2023/03/23 00:54:27;;;;;;;4.57;3.40;;;10.90;99.90;;;;;;5068600;28;20093;-65
2023/03/23 00:56:53;;;;;;;8.63;3.40;;;10.90;99.90;;;;;;5067797;28;20063;-65
2023/03/23 00:59:20;;;;;;;3.33;2.63;;;10.90;99.90;;;;;;5067394;28;20775;-65
2023/03/23 01:01:46;;;;;;;16.92;4.03;;;10.90;99.90;;;;;;5058612;28;20090;-65
2023/03/23 01:04:12;;;;;;;8.98;4.10;;;10.90;99.90;;;;;;5029242;28;20044;-65
2023/03/23 01:06:40;;;;;;;9.93;3.88;;;11.00;99.90;;;;;;5048453;28;20052;-64
2023/03/23 01:09:16;;;;;;;9.52;4.78;;;11.00;99.90;;;;;;5067178;28;20052;-65
2023/03/23 01:11:43;;;;;;;6.40;3.70;;;10.90;99.90;;;;;;5067877;28;20056;-64
2023/03/23 01:14:10;;;;;;;8.00;3.55;;;10.90;99.90;;;;;;5067965;28;20036;-65
2023/03/23 01:16:35;;;;;;;9.20;4.00;;;11.00;99.90;;;;;;5066998;28;20574;-64
2023/03/23 01:19:01;;;;;;;4.93;4.53;;;11.00;99.90;;;;;;5056178;28;20045;-64
2023/03/23 01:21:27;;;;;;;5.05;2.72;;;10.90;99.90;;;;;;5030206;28;20128;-64
2023/03/23 01:23:53;;;;;;;6.68;3.53;;;10.90;99.90;;;;;;5067814;28;20080;-64
2023/03/23 01:26:21;;;;;;;6.80;2.50;;;10.90;99.90;;;;;;5066946;28;20048;-64
2023/03/23 01:28:48;;;;;;;8.02;1.88;;;10.80;99.90;;;;;;5067209;28;20048;-64
2023/03/23 01:31:16;;;;;;;2.03;1.85;;;10.60;99.90;;;;;;5048715;28;20048;-65
2023/03/23 01:33:43;;;;;;;4.70;2.45;;;10.50;99.90;;;;;;5066978;28;20136;-64
2023/03/23 01:36:12;;;;;;;3.03;1.60;;;10.40;99.90;;;;;;5067557;28;20036;-64
2023/03/23 01:38:38;;;;;;;4.93;1.75;;;10.40;99.90;;;;;;5066410;28;20123;-64
2023/03/23 01:41:04;;;;;;;1.60;1.42;;;10.30;99.90;;;;;;5067675;28;20127;-64
2023/03/23 01:43:31;;;;;;;2.33;1.48;;;10.30;99.90;;;;;;5066050;28;20053;-64
2023/03/23 01:45:57;;;;;;;2.50;1.60;;;10.30;99.90;;;;;;5049359;28;20059;-65
2023/03/23 01:48:36;;;;;;;2.75;1.60;;;10.20;99.90;;;;;;5065914;28;20045;-65
2023/03/23 01:51:07;;;;;;;1.20;1.10;;;10.10;99.90;;;;;;5067068;28;20083;-65
2023/03/23 01:53:48;;;;;;;2.72;1.30;;;10.10;99.90;;;;;;5049314;28;20059;-65
2023/03/23 01:56:20;;;;;;;1.67;1.20;;;10.00;99.90;;;;;;5062768;28;20396;-65
2023/03/23 01:58:46;;;;;;;2.38;1.65;;;10.00;99.90;;;;;;5045354;28;20059;-65
2023/03/23 02:01:15;;;;;;;4.53;2.03;;;10.00;99.90;;;;;;5048427;28;20483;-65
2023/03/23 02:03:43;;;;;;;6.82;2.38;;;10.10;99.90;;;;;;5067264;28;20078;-65
2023/03/23 02:06:10;;;;;;;7.95;2.15;;;10.20;99.90;;;;;;5046492;28;20433;-65
2023/03/23 02:08:37;;;;;;;6.18;2.47;;;10.20;99.90;;;;;;5059965;28;20051;-65
2023/03/23 02:11:16;;;;;;;5.50;2.90;;;10.20;99.90;;;;;;5039457;28;20057;-64
2023/03/23 02:13:43;;;;;;;5.43;2.83;;;10.30;99.90;;;;;;5048795;28;20488;-65
2023/03/23 02:16:40;;;;;;;8.70;3.55;;;10.40;99.90;;;;;;5066923;28;20105;-64
2023/03/23 02:19:24;;;;;;;7.38;3.58;;;10.40;99.90;;;;;;5048919;28;20060;-65
2023/03/23 02:22:07;;;;;;;8.40;3.58;;;10.50;99.90;;;;;;5048609;28;20063;-64
2023/03/23 02:24:36;;;;;;;5.97;3.70;;;10.50;99.90;;;;;;5066433;28;20071;-65
2023/03/23 02:27:26;;;;;;;10.85;3.80;;;10.60;99.90;;;;;;5066435;28;20049;-65
2023/03/23 02:30:24;;;;;;;7.18;3.60;;;10.60;99.90;;;;;;5066250;28;20057;-65
2023/03/23 02:33:24;;;;;;;5.82;3.50;;;10.60;99.90;;;;;;5012161;28;20110;-65
2023/03/23 02:35:59;;;;;;;4.45;2.58;;;10.70;99.90;;;;;;5048468;28;20063;-65
2023/03/23 02:38:35;;;;;;;3.67;2.28;;;10.70;99.90;;;;;;5051901;28;20040;-65
2023/03/23 02:41:03;;;;;;;4.75;2.45;;;10.70;99.90;;;;;;5067123;28;20037;-65
2023/03/23 02:43:38;;;;;;;7.50;2.95;;;10.80;99.90;;;;;;5065412;28;20078;-65
2023/03/23 02:46:08;;;;;;;5.28;2.78;;;10.80;99.90;;;;;;5048194;28;20518;-65
2023/03/23 02:48:35;;;;;;;4.10;2.88;;;10.80;99.90;;;;;;5066285;28;20033;-65
2023/03/23 02:51:02;;;;;;;7.88;2.72;;;10.80;99.90;;;;;;5066296;28;20048;-65
2023/03/23 02:53:30;;;;;;;6.35;2.70;;;10.90;99.90;;;;;;5048366;28;20040;-65
2023/03/23 02:55:57;;;;;;;7.25;2.92;;;10.90;99.90;;;;;;5052084;28;20394;-65
2023/03/23 02:58:24;;;;;;;5.63;2.78;;;10.90;99.90;;;;;;5070554;28;20622;-65
2023/03/23 03:00:50;;;;;;;5.70;2.78;;;10.90;99.90;;;;;;5069916;28;20048;-65
2023/03/23 03:03:23;;;;;;;5.43;2.38;;;10.90;99.90;;;;;;5070342;28;20048;-65
2023/03/23 03:06:01;;;;;;;6.13;2.50;;;10.90;99.90;;;;;;5070019;28;20120;-65
2023/03/23 03:08:45;;;;;;;3.42;1.73;;;10.90;99.90;;;;;;5064584;28;20059;-65
2023/03/23 03:11:17;;;;;;;7.80;3.13;;;10.90;99.90;;;;;;5038604;28;20048;-65
2023/03/23 03:13:48;;;;;;;9.18;3.05;;;10.90;99.90;;;;;;5051784;28;20048;-65
2023/03/23 03:16:16;;;;;;;5.47;2.30;;;10.90;99.90;;;;;;5070233;28;20040;-65
2023/03/23 03:19:06;;;;;;;5.40;2.85;;;10.90;99.90;;;;;;5051199;28;20048;-65
2023/03/23 03:21:37;;;;;;;5.18;2.60;;;10.90;99.90;;;;;;5038428;28;20053;-66
2023/03/23 03:24:07;;;;;;;10.13;3.97;;;10.90;99.90;;;;;;5070530;28;20063;-65
2023/03/23 03:26:34;;;;;;;8.45;2.50;;;10.80;99.90;;;;;;5055426;28;20090;-65
2023/03/23 03:29:01;;;;;;;5.78;2.70;;;10.80;99.90;;;;;;5051572;28;20041;-65
2023/03/23 03:31:32;;;;;;;7.60;2.40;;;10.80;99.90;;;;;;5034220;28;20059;-65
2023/03/23 03:34:00;;;;;;;3.15;2.00;;;10.80;99.90;;;;;;5069880;28;20061;-65
2023/03/23 03:36:34;;;;;;;7.38;2.35;;;10.80;99.90;;;;;;5069701;28;20420;-65
2023/03/23 03:39:07;;;;;;;3.90;2.20;;;10.80;99.90;;;;;;5068909;28;20475;-65
2023/03/23 03:41:38;;;;;;;5.22;2.92;;;10.80;99.90;;;;;;5069657;28;20064;-65
2023/03/23 03:44:05;;;;;;;5.13;2.53;;;10.80;99.90;;;;;;5069394;28;20064;-65
2023/03/23 03:46:32;;;;;;;4.57;2.05;;;10.80;99.90;;;;;;5069013;28;20048;-65
2023/03/23 03:48:58;;;;;;;6.60;2.78;;;10.70;99.90;;;;;;5069610;28;20438;-65
2023/03/23 03:51:26;;;;;;;4.78;1.92;;;10.70;99.90;;;;;;5050305;28;20439;-65
2023/03/23 03:53:52;;;;;;;7.32;1.92;;;10.80;99.90;;;;;;5069645;28;20067;-65
2023/03/23 03:56:19;;;;;;;9.02;2.22;;;10.70;99.90;;;;;;5068903;28;20507;-67
2023/03/23 03:58:48;;;;;;;4.75;2.42;;;10.70;99.90;;;;;;5051604;28;20555;-67
2023/03/23 04:01:14;;;;;;;6.90;2.13;;;10.70;99.90;;;;;;5068805;28;20052;-67
2023/03/23 04:03:41;;;;;;;2.20;1.52;;;10.70;99.90;;;;;;5068899;28;20087;-67
2023/03/23 04:06:08;;;;;;;2.58;1.48;;;10.70;99.90;;;;;;5050438;28;20049;-67
2023/03/23 04:08:34;;;;;;;5.53;1.70;;;10.80;99.90;;;;;;5068511;28;20056;-68
2023/03/23 04:11:00;;;;;;;7.40;1.75;;;10.80;99.90;;;;;;5020182;28;20040;-67
2023/03/23 04:13:26;;;;;;;5.15;1.85;;;10.80;99.90;;;;;;5068434;28;20124;-67
2023/03/23 04:15:52;;;;;;;3.72;1.95;;;10.90;99.90;;;;;;5034977;28;20525;-66
2023/03/23 04:18:19;;;;;;;10.00;2.03;;;10.90;99.90;;;;;;5050654;28;20107;-66
2023/03/23 04:20:47;;;;;;;7.18;2.00;;;10.80;99.90;;;;;;5068611;28;20041;-65
2023/03/23 04:23:19;;;;;;;3.75;1.88;;;10.70;99.90;;;;;;5068486;28;20036;-66
2023/03/23 04:25:53;;;;;;;7.35;2.13;;;10.60;99.90;;;;;;5068261;28;20069;-66
2023/03/23 04:28:23;;;;;;;7.10;2.83;;;10.60;99.90;;;;;;5055961;28;20044;-66
2023/03/23 04:30:52;;;;;;;;;;;10.60;99.90;;;;;;5068263;28;20045;-66
2023/03/23 04:33:19;;;;;;;8.88;3.00;;;10.60;99.90;;;;;;5069019;28;19920;-65
2023/03/23 04:35:47;;;;;;;7.13;2.63;;;10.60;99.90;;;;;;5067664;28;20067;-65
2023/03/23 04:38:15;;;;;;;10.13;3.40;;;10.60;99.90;;;;;;5068665;28;20040;-64
2023/03/23 04:40:43;;;;;;;9.73;3.30;;;10.60;99.90;;;;;;5067921;28;20479;-65
2023/03/23 04:43:11;;;;;;;9.88;3.47;;;10.60;99.90;;;;;;5068127;28;20114;-66
2023/03/23 04:45:41;;;;;;;8.07;0.93;;;10.50;99.90;;;;;;5067734;28;20056;-64
2023/03/23 04:48:07;;;;;;;8.98;1.50;;;10.30;99.90;;;;;;5067821;28;20044;-65
2023/03/23 04:50:33;;;;;;;9.88;1.30;;;10.00;99.90;;;;;;5068174;28;20667;-66
2023/03/23 04:53:05;;;;;;;1.38;0.57;;;9.90;99.90;;;;;;5050081;28;20441;-66
2023/03/23 04:55:36;;;;;;;0.30;0.30;;;9.80;99.90;;;;;;5054632;28;20025;-66
2023/03/23 04:58:06;;;;;;;0.25;0.25;;;9.80;99.90;;;;;;5068041;28;20036;-66
2023/03/23 05:00:34;;;;;;;3.55;0.52;;;9.70;99.90;;;;;;5054042;28;20049;-66
2023/03/23 05:03:00;;;;;;;2.15;0.70;;;9.70;99.90;;;;;;5067950;28;20037;-67
2023/03/23 05:05:27;;;;;;;3.17;0.40;;;9.70;99.90;;;;;;5049520;28;20033;-67
2023/03/23 05:07:53;;;;;;;0.95;0.20;;;9.70;99.90;;;;;;5067675;28;20054;-67
2023/03/23 05:10:19;;;;;;;1.98;0.57;;;9.80;99.90;;;;;;5067720;28;20052;-67
2023/03/23 05:12:45;;;;;;;1.95;0.60;;;9.80;99.90;;;;;;5049481;28;20164;-66
2023/03/23 05:15:13;;;;;;;4.93;0.93;;;9.80;99.90;;;;;;5068094;28;20123;-66
2023/03/23 05:17:40;;;;;;;3.47;1.27;;;9.80;99.90;;;;;;5048256;28;20105;-67
2023/03/23 05:20:11;;;;;;;2.80;0.70;;;9.80;99.90;;;;;;5049901;28;20048;-64
2023/03/23 05:22:38;;;;;;;4.82;0.88;;;9.80;99.90;;;;;;5066861;28;20036;-64
2023/03/23 05:25:08;;;;;;;5.20;0.98;;;9.80;99.90;;;;;;5050298;28;20400;-64
2023/03/23 05:27:36;;;;;;;3.00;0.43;;;9.80;99.90;;;;;;5067048;28;20115;-64
2023/03/23 05:30:04;;;;;;;3.35;0.80;;;9.80;99.90;;;;;;5067265;28;20074;-64
2023/03/23 05:32:30;;;;;;;2.67;0.93;;;9.90;99.90;;;;;;5066750;28;20489;-64
2023/03/23 05:35:00;;;;;;;6.10;1.38;;;9.90;99.90;;;;;;5032734;28;20041;-64
2023/03/23 05:37:33;;;;;;;8.02;2.30;;;9.90;99.90;;;;;;5049743;28;20518;-64
2023/03/23 05:40:04;;;;;;;3.78;1.20;;;9.90;99.90;;;;;;5032737;28;20044;-64
2023/03/23 05:42:31;;;;;;;13.55;2.58;;;10.00;99.90;;;;;;5067935;28;20045;-64
2023/03/23 05:44:58;;;;;;;5.97;1.50;;;9.90;99.90;;;;;;5048260;28;20060;-64
2023/03/23 05:47:25;;;;;;;9.02;1.83;;;10.00;99.90;;;;;;5067518;28;20529;-64
2023/03/23 05:49:51;;;;;;;7.55;2.03;;;10.10;99.90;;;;;;5066196;28;20568;-64
2023/03/23 05:52:18;;;;;;;12.40;2.47;;;10.10;99.90;;;;;;5066901;28;20409;-64
2023/03/23 05:54:44;;;;;;;13.95;2.30;;;10.20;99.90;;;;;;5066659;28;20048;-64
2023/03/23 05:57:10;;;;;;;12.30;2.53;;;10.20;99.90;;;;;;5066525;28;20047;-64
2023/03/23 05:59:37;;;;;;;7.03;1.35;;;10.20;99.90;;;;;;5066886;28;20139;-65
2023/03/23 06:02:04;;;;;;;13.85;2.33;;;10.30;99.90;;;;;;5047843;28;20063;-64
2023/03/23 06:04:30;;;;;;;8.20;2.00;;;10.30;99.90;;;;;;5067523;28;20055;-65
2023/03/23 06:06:55;;;;;;;7.15;1.67;;;10.40;99.90;;;;;;5066555;28;20037;-64
2023/03/23 06:09:23;;;;;;;4.50;1.17;;;10.40;99.90;;;;;;5048886;28;20036;-64
2023/03/23 06:11:49;;;;;;;14.93;2.28;;;10.50;99.90;;;;;;5048145;28;20047;-64
2023/03/23 06:14:16;;;;;;;13.50;2.08;;;10.60;99.90;;;;;;5066315;28;20036;-64
2023/03/23 06:16:42;;;;;;;13.85;2.38;;;10.60;99.90;;;;;;5066953;28;20048;-64
2023/03/23 06:19:07;;;;;;;17.58;2.20;;;10.60;99.90;;;;;;5066506;28;20047;-64
2023/03/23 06:21:34;;;;;;;16.65;1.75;;;10.60;99.90;;;;;;5048822;28;20532;-64
2023/03/23 06:24:00;;;;;;;18.50;3.22;;;10.60;99.90;;;;;;5066381;28;20124;-64
2023/03/23 06:26:33;;;;;;;20.55;3.80;;;10.60;99.90;;;;;;5066757;28;20846;-64
2023/03/23 06:28:58;;;;;;;16.33;2.20;;;10.60;99.90;;;;;;5048307;28;20040;-65
2023/03/23 06:31:26;;;;;;;16.95;2.67;;;10.60;99.90;;;;;;5065998;28;20040;-64
2023/03/23 06:33:52;;;;;;;24.10;3.10;;;10.60;99.90;;;;;;5067151;28;20553;-65
2023/03/23 06:36:18;;;;;;;6.72;1.40;;;10.60;99.90;;;;;;5066123;28;20507;-64
2023/03/23 06:38:44;;;;;;;18.50;2.88;;;10.60;99.90;;;;;;5031906;28;20047;-65
2023/03/23 06:41:11;;;;;;;19.45;2.25;;;10.60;99.90;;;;;;5065667;28;20048;-64
2023/03/23 06:43:39;;;;;;;15.32;2.85;;;10.70;99.90;;;;;;5065612;28;20092;-64
2023/03/23 06:46:05;;;;;;;12.82;1.70;;;10.70;99.90;;;;;;5047902;28;20080;-64
2023/03/23 06:48:31;;;;;;;24.25;2.75;;;10.70;99.90;;;;;;5066503;28;20044;-65
2023/03/23 06:50:57;;;;;;;23.90;3.22;;;10.70;99.90;;;;;;5066180;28;20052;-65
2023/03/23 06:53:23;;;;;;;15.13;2.42;;;10.70;99.90;;;;;;5066188;28;20375;-65
2023/03/23 06:55:49;;;;;;;19.95;2.58;;;10.70;99.90;;;;;;5048541;28;20045;-64
2023/03/23 06:58:15;;;;;;;10.68;2.05;;;10.70;99.90;;;;;;5065912;28;20087;-64
2023/03/23 07:00:41;;;;;;;25.92;3.58;;;10.70;99.90;;;;;;5048238;28;20086;-64
2023/03/23 07:03:08;;;;;;;6.35;1.58;;;10.70;99.90;;;;;;5047198;28;20509;-65
2023/03/23 07:05:34;;;;;;;24.63;3.70;;;10.70;99.90;;;;;;5066126;28;20119;-65
2023/03/23 07:08:01;;;;;;;15.00;2.65;;;10.70;99.90;;;;;;5065958;28;20098;-65
2023/03/23 07:10:27;;;;;;;5.30;1.48;;;10.70;99.90;;;;;;5047354;28;20483;-64
2023/03/23 07:12:53;;;;;;;12.32;2.72;;;10.70;99.90;;;;;;5047787;28;20143;-65
2023/03/23 07:15:20;;;;;;;13.88;3.00;;;10.60;99.90;;;;;;5065941;28;20045;-65
2023/03/23 07:17:47;;;;;;;13.55;2.72;;;10.50;99.90;;;;;;5048398;28;20259;-65
2023/03/23 07:20:14;;;;;;;3.70;1.20;;;10.50;99.90;;;;;;5048531;28;20458;-67
2023/03/23 07:22:40;;;;;;;5.35;0.65;;;10.40;99.90;;;;;;5046416;28;20056;-67
2023/03/23 07:25:07;;;;;;;6.60;1.58;;;10.40;99.90;;;;;;5047976;28;20041;-67
2023/03/23 07:27:33;;;;;;;2.55;0.70;;;10.40;99.90;;;;;;5065709;28;20049;-64
2023/03/23 07:29:59;;;;;;;4.55;1.10;;;10.40;99.90;;;;;;5048493;28;20059;-65
2023/03/23 07:32:25;;;;;;;10.30;1.70;;;10.40;99.90;;;;;;5056362;28;20395;-65
2023/03/23 07:34:51;;;;;;;11.95;1.23;;;10.40;99.90;;;;;;5064499;28;20491;-67
2023/03/23 07:37:17;;;;;;;13.30;1.70;;;10.50;99.90;;;;;;5066040;28;20111;-67
2023/03/23 07:39:43;;;;;;;11.13;1.27;;;10.50;99.90;;;;;;5065816;28;20617;-67
2023/03/23 07:42:09;;;;;;;8.60;1.25;;;10.60;99.90;;;;;;5067927;28;20044;-67
2023/03/23 07:44:35;;;;;;;9.35;1.92;;;10.60;99.90;;;;;;5069116;28;20045;-66
2023/03/23 07:47:01;;;;;;;23.38;2.63;;;10.70;99.90;;;;;;5069560;28;20041;-67
2023/03/23 07:49:30;;;;;;;14.70;2.60;;;10.90;99.90;;;;;;5051442;28;20134;-67
2023/03/23 07:51:56;;;;;;;19.77;3.28;;;11.00;99.90;;;;;;5051376;28;20084;-67
2023/03/23 07:54:22;;;;;;;13.93;2.70;;;11.00;99.90;;;;;;5064968;28;20123;-67
2023/03/23 07:56:48;;;;;;;16.92;2.58;;;11.10;99.90;;;;;;5066708;28;20079;-67
2023/03/23 07:59:13;;;;;;;16.38;2.45;;;11.20;99.90;;;;;;5033442;28;20052;-67
2023/03/23 08:01:39;;;;;;;20.90;3.63;;;11.20;99.90;;;;;;5064530;28;20097;-66
2023/03/23 08:04:05;;;;;;;22.10;3.95;;;11.20;99.90;;;;;;5032699;28;20502;-66
2023/03/23 08:06:35;;;;;;;16.30;3.42;;;11.20;99.90;;;;;;5031442;28;20041;-67
2023/03/23 08:09:06;;;;;;;20.67;3.30;;;11.30;99.90;;;;;;5068595;28;20545;-67
2023/03/23 08:11:32;;;;;;;11.82;1.77;;;11.30;99.90;;;;;;5068069;28;20047;-66
2023/03/23 08:13:58;;;;;;;23.98;2.70;;;11.30;99.90;;;;;;5033930;28;20044;-66
2023/03/23 08:16:25;;;;;;;18.88;3.22;;;11.30;99.90;;;;;;5050890;28;20079;-66
2023/03/23 08:18:51;;;;;;;14.23;2.38;;;11.30;99.90;;;;;;5069248;28;20039;-65
2023/03/23 08:21:17;;;;;;;28.95;4.40;;;11.50;99.90;;;;;;5068456;28;20051;-66
2023/03/23 08:23:43;;;;;;;23.95;3.60;;;11.60;99.90;;;;;;5049809;28;20241;-65
2023/03/23 08:26:09;;;;;;;24.48;5.10;;;11.60;99.90;;;;;;5068840;28;20090;-66
2023/03/23 08:28:37;;;;;;;19.25;2.95;;;11.70;99.90;;;;;;5068565;28;20127;-65
2023/03/23 08:31:08;;;;;;;25.95;4.00;;;11.70;99.90;;;;;;5068142;28;20049;-66
2023/03/23 08:33:33;;;;;;;17.70;2.40;;;11.70;99.90;;;;;;5058739;28;20521;-66
2023/03/23 08:36:00;;;;;;;19.55;3.03;;;11.70;99.90;;;;;;5061324;28;20075;-65
2023/03/23 08:38:27;;;;;;;43.72;5.63;;;11.70;99.90;;;;;;5054848;28;20102;-66
2023/03/23 08:40:58;;;;;;;18.63;2.55;;;11.70;99.90;;;;;;5068287;28;20047;-66
2023/03/23 08:43:24;;;;;;;15.93;2.55;;;11.70;99.90;;;;;;5033896;28;20409;-66
2023/03/23 08:45:51;;;;;;;21.42;3.28;;;11.70;99.90;;;;;;5050020;28;20040;-66
2023/03/23 08:48:17;;;;;;;34.90;5.15;;;11.80;99.90;;;;;;5049214;28;20124;-66
2023/03/23 08:50:43;;;;;;;28.08;3.35;;;11.90;99.90;;;;;;5049767;28;20518;-65
2023/03/23 08:53:09;;;;;;;27.75;4.88;;;11.90;99.90;;;;;;5040899;28;20068;-66
2023/03/23 08:55:35;;;;;;;27.92;2.97;;;11.80;99.90;;;;;;5044336;28;20470;-66
2023/03/23 08:58:03;;;;;;;27.67;4.53;;;11.90;99.90;;;;;;5066932;28;20044;-66
2023/03/23 09:00:30;;;;;;;25.35;3.95;;;11.90;99.90;;;;;;5050439;28;20044;-66
2023/03/23 09:02:56;;;;;;;37.95;5.13;;;11.80;99.90;;;;;;5065956;28;20045;-66
2023/03/23 09:05:24;;;;;;;24.90;4.63;;;11.90;99.90;;;;;;5067261;28;20120;-66
2023/03/23 09:07:52;;;;;;;51.47;7.38;;;11.90;99.90;;;;;;5049526;28;20135;-66
2023/03/23 09:10:19;;;;;;;34.95;5.05;;;12.10;99.90;;;;;;5053356;28;20504;-66
2023/03/23 09:12:46;;;;;;;22.42;3.35;;;12.20;99.90;;;;;;5056964;28;20059;-66
2023/03/23 09:15:16;;;;;;;32.53;4.70;;;12.30;99.90;;;;;;5060247;28;20037;-66
2023/03/23 09:17:47;;;;;;;26.67;3.38;;;12.40;99.90;;;;;;5052946;28;20137;-66
2023/03/23 09:20:20;;;;;;;31.40;4.47;;;12.30;99.90;;;;;;5046917;28;20142;-66
2023/03/23 09:22:51;;;;;;;22.75;3.03;;;12.30;99.90;;;;;;5036207;28;20507;-66
2023/03/23 09:25:21;;;;;;;5.90;1.25;;;12.30;99.90;;;;;;5060084;28;20040;-66
2023/03/23 09:27:52;;;;;;;17.52;2.80;;;12.30;99.90;;;;;;5062929;28;20046;-66
2023/03/23 09:30:19;;;;;;;28.73;4.10;;;12.30;99.90;;;;;;5065390;28;20052;-66
2023/03/23 09:32:45;;;;;;;28.10;4.57;;;12.30;99.90;;;;;;5066493;28;20074;-66
2023/03/23 09:35:12;;;;;;;19.13;3.30;;;12.50;99.90;;;;;;5045471;28;20041;-66
2023/03/23 09:37:39;;;;;;;16.02;3.00;;;12.60;99.90;;;;;;5061683;28;20047;-66
2023/03/23 09:40:10;;;;;;;9.18;2.15;;;12.70;99.90;;;;;;5064970;28;20044;-66
2023/03/23 09:42:57;;;;;;;30.63;5.10;;;12.50;98.80;;;;;;5042559;28;20052;-66
2023/03/23 09:45:28;;;;;;;21.27;4.30;;;12.40;96.20;;;;;;5057648;28;20058;-66
2023/03/23 09:48:03;;;;;;;25.42;5.05;;;12.30;99.80;;;;;;5060353;28;20406;-65
2023/03/23 09:50:34;;;;;;;26.15;4.78;;;12.30;99.90;;;;;;5064949;28;20533;-66
2023/03/23 09:53:13;;;;;;;21.42;3.25;;;12.30;99.90;;;;;;5053403;28;20122;-66
2023/03/23 09:55:39;;;;;;;8.90;2.70;;;12.40;99.90;;;;;;5060854;28;20407;-65
2023/03/23 09:58:16;;;;;;;16.92;2.58;;;12.70;99.90;;;;;;5052632;28;20043;-65
2023/03/23 10:00:58;;;;;;;23.20;3.85;;;13.00;99.70;;;;;;5042647;28;20518;-65
2023/03/23 10:03:37;;;;;;;25.13;3.67;;;13.20;95.70;;;;;;5060190;28;20569;-65
2023/03/23 10:06:03;;;;;;;32.47;3.38;;;13.30;95.00;;;;;;5029836;28;20487;-66
2023/03/23 10:08:32;;;;;;;24.05;3.70;;;13.30;90.50;;;;;;5048872;28;20053;-66
2023/03/23 10:11:14;;;;;;;11.27;3.42;;;13.10;88.40;;;;;;5029744;28;20036;-66
2023/03/23 10:14:18;;;;;;;30.25;4.93;;;13.00;89.50;;;;;;5059213;28;20052;-66
2023/03/23 10:17:01;;;;;;;6.00;1.67;;;12.90;90.20;;;;;;5066380;28;20437;-65
2023/03/23 10:19:36;;;;;;;25.65;4.15;;;12.80;85.60;;;;;;5065929;28;20540;-65
2023/03/23 10:22:08;;;;;;;18.80;3.13;;;12.60;86.00;;;;;;5066937;28;20051;-66
2023/03/23 10:24:42;;;;;;;13.20;2.05;;;12.40;85.40;;;;;;5065827;28;20036;-65
2023/03/23 10:27:17;;;;;;;19.30;1.90;;;12.40;88.40;;;;;;5058219;28;20076;-65
2023/03/23 10:29:52;;;;;;;26.15;4.43;;;12.40;88.00;;;;;;5047971;28;20043;-65
2023/03/23 10:32:22;;;;;;;25.02;3.35;;;12.40;87.40;;;;;;5058727;28;20619;-66
2023/03/23 10:34:59;;;;;;;11.07;2.30;;;12.60;89.90;;;;;;5046893;28;20075;-65
2023/03/23 10:37:38;;;;;;;17.08;2.38;;;12.50;77.30;;;;;;5064003;28;20493;-66
2023/03/23 10:40:14;;;;;;;11.13;1.35;;;12.50;78.50;;;;;;5048833;28;20171;-66
2023/03/23 10:42:41;;;;;;;22.73;3.22;;;12.40;72.40;;;;;;5066193;28;20091;-65
2023/03/23 10:45:32;;;;;;;11.55;2.47;;;12.50;75.20;;;;;;5059027;28;20056;-66
2023/03/23 10:48:14;;;;;;;10.30;2.60;;;12.40;75.80;;;;;;5030762;28;20084;-66
2023/03/23 10:50:43;;;;;;;14.20;1.55;;;12.50;76.80;;;;;;5044286;28;20502;-66
2023/03/23 10:53:43;;;;;;;21.60;4.55;;;12.50;76.80;;;;;;5055630;28;20049;-66
2023/03/23 10:56:25;;;;;;;6.57;0.98;;;12.60;80.40;;;;;;5024147;28;20075;-66
2023/03/23 10:58:51;;;;;;;18.65;2.90;;;12.60;74.00;;;;;;5065256;28;20040;-66
2023/03/23 11:01:33;;;;;;;18.80;3.42;;;12.60;81.70;;;;;;5059935;28;20056;-65
2023/03/23 11:04:01;;;;;;;22.67;3.38;;;12.60;78.80;;;;;;5052937;28;20040;-66
2023/03/23 11:06:37;;;;;;;25.70;4.65;;;12.70;82.50;;;;;;5064173;28;20049;-66
2023/03/23 11:09:12;;;;;;;27.10;4.28;;;12.90;75.30;;;;;;5061643;28;20582;-66
2023/03/23 11:11:43;;;;;;;21.75;2.97;;;13.10;78.00;;;;;;5047602;28;20052;-65
2023/03/23 11:14:25;;;;;;;24.65;4.18;;;13.30;72.90;;;;;;5062441;28;20503;-65
2023/03/23 11:17:06;;;;;;;13.35;2.67;;;13.40;72.80;;;;;;5064685;28;20048;-65
2023/03/23 11:19:37;;;;;;;19.05;2.63;;;13.40;68.70;;;;;;5068048;28;20044;-65
2023/03/23 11:22:36;;;;;;;13.85;2.80;;;13.50;73.10;;;;;;5042289;28;20049;-65
2023/03/23 11:25:05;;;;;;;7.97;1.67;;;13.50;71.10;;;;;;5061149;28;20135;-65
2023/03/23 11:27:32;;;;;;;24.92;3.83;;;13.60;69.50;;;;;;5055261;28;20111;-65
2023/03/23 11:30:19;;;;;;;12.85;2.53;;;13.60;71.70;;;;;;5066251;28;20048;-65
2023/03/23 11:32:46;;;;;;;20.13;2.95;;;13.60;74.20;;;;;;5055509;28;20402;-66
2023/03/23 11:35:19;;;;;;;14.65;2.72;;;13.50;69.70;;;;;;5036550;28;20083;-66
2023/03/23 11:37:54;;;;;;;20.05;2.70;;;13.60;69.60;;;;;;5049882;28;20475;-66
2023/03/23 11:40:31;;;;;;;27.75;6.45;;;13.90;76.70;;;;;;5069318;28;20040;-65
2023/03/23 11:43:07;;;;;;;24.42;3.65;;;14.10;75.60;;;;;;5068657;28;20119;-65
2023/03/23 11:45:55;;;;;;;14.82;3.50;;;14.00;68.30;;;;;;5060891;28;20048;-66
2023/03/23 11:48:31;;;;;;;19.23;2.85;;;13.80;63.30;;;;;;5058104;28;20044;-65
2023/03/23 11:51:23;;;;;;;18.15;2.88;;;13.50;66.00;;;;;;5066545;28;20437;-65
2023/03/23 11:54:13;;;;;;;15.10;2.72;;;13.50;64.70;;;;;;5056074;28;20044;-66
2023/03/23 11:56:42;;;;;;;19.95;2.78;;;13.50;66.70;;;;;;5066842;28;20506;-66
2023/03/23 11:59:26;;;;;;;15.05;2.60;;;13.60;65.80;;;;;;5067550;28;20032;-66
2023/03/23 12:02:04;;;;;;;14.57;3.55;;;13.70;71.40;;;;;;5064143;28;20040;-65
2023/03/23 12:05:07;;;;;;;13.10;2.65;;;13.90;70.80;;;;;;5067266;28;20053;-65
2023/03/23 12:07:36;;;;;;;8.52;2.17;;;14.10;63.10;;;;;;5055238;28;20044;-65
2023/03/23 12:10:31;;;;;;;13.52;2.83;;;14.30;66.30;;;;;;5068756;28;20102;-65
2023/03/23 12:13:13;;;;;;;14.88;2.53;;;14.50;62.50;;;;;;5036729;28;20053;-65
2023/03/23 12:16:05;;;;;;;25.58;4.00;;;14.70;59.40;;;;;;5068464;28;20056;-65
2023/03/23 12:18:55;;;;;;;11.38;1.58;;;14.80;62.80;;;;;;5045260;28;20090;-65
2023/03/23 12:21:45;;;;;;;16.02;2.95;;;14.80;54.90;;;;;;5067509;28;20566;-65
2023/03/23 12:24:29;;;;;;;21.27;4.40;;;14.80;60.50;;;;;;5068779;28;20044;-64
2023/03/23 12:27:15;;;;;;;12.90;2.65;;;14.80;52.80;;;;;;5033094;28;20499;-64
2023/03/23 12:30:09;;;;;;;16.23;2.53;;;14.90;51.50;;;;;;5049806;28;20051;-64
2023/03/23 12:32:59;;;;;;;15.07;3.00;;;15.00;52.80;;;;;;5067955;28;20119;-64
2023/03/23 12:35:46;;;;;;;8.93;1.60;;;14.90;54.00;;;;;;5057530;28;20525;-64
2023/03/23 12:38:47;;;;;;;13.30;2.42;;;14.90;52.70;;;;;;5068379;28;20040;-63
2023/03/23 12:42:06;;;;;;;13.02;1.98;;;14.80;52.90;;;;;;5068851;28;20053;-63
2023/03/23 12:44:52;;;;;;;11.88;1.95;;;14.40;49.00;;;;;;4950657;28;20058;-64
2023/03/23 12:47:22;;;;;;;10.27;1.92;;;14.30;51.50;;;;;;4966626;28;20055;-63
2023/03/23 12:49:59;;;;;;;8.47;2.03;;;14.40;50.90;;;;;;5041097;28;20728;-63
2023/03/23 12:52:39;;;;;;;6.57;1.42;;;14.60;45.50;;;;;;5067426;28;20033;-63
2023/03/23 12:55:23;;;;;;;15.15;2.38;;;14.40;45.70;;;;;;5068039;28;20527;-63
2023/03/23 12:58:09;;;;;;;8.52;1.65;;;14.30;48.00;;;;;;5049958;28;20063;-63
2023/03/23 13:00:49;;;;;;;10.50;1.67;;;14.50;47.40;;;;;;5067284;28;20048;-63
2023/03/23 13:03:40;;;;;;;10.45;2.15;;;14.70;49.50;;;;;;5063939;28;20036;-63